createdAt,value
2023-03-16T00:01:50.411Z,100730.96
2023-03-16T00:04:24.582Z,100729.05
2023-03-16T00:06:59.055Z,100728.02
2023-03-16T00:09:35.336Z,100726.11
2023-03-16T00:12:15.395Z,100725.40
2023-03-16T00:14:49.648Z,100724.19
2023-03-16T00:17:39.692Z,100725.88
2023-03-16T00:20:23.795Z,100728.23
2023-03-16T00:22:57.729Z,100730.44
2023-03-16T00:25:31.793Z,100732.64
2023-03-16T00:28:08.941Z,100735.35
2023-03-16T00:30:39.641Z,100737.73
2023-03-16T00:33:24.572Z,100743.68
2023-03-16T00:36:07.909Z,100745.20
2023-03-16T00:38:54.710Z,100749.09
2023-03-16T00:41:37.714Z,100755.22
2023-03-16T00:44:09.296Z,100753.64
2023-03-16T00:46:43.059Z,100756.20
2023-03-16T00:49:25.083Z,100757.21
2023-03-16T00:51:53.770Z,100757.87
2023-03-16T00:54:40.345Z,100756.31
2023-03-16T00:57:31.025Z,100758.52
2023-03-16T01:00:08.942Z,100757.47
2023-03-16T01:02:41.774Z,100758.48
2023-03-16T01:05:21.575Z,100758.31
2023-03-16T01:07:54.801Z,100761.02
2023-03-16T01:10:36.999Z,100761.70
2023-03-16T01:13:07.894Z,100763.03
2023-03-16T01:15:45.720Z,100763.36
2023-03-16T01:18:24.243Z,100765.40
2023-03-16T01:21:11.265Z,100769.66
2023-03-16T01:23:50.169Z,100773.61
2023-03-16T01:26:26.883Z,100773.44
2023-03-16T01:29:04.100Z,100778.77
2023-03-16T01:31:48.009Z,100778.77
2023-03-16T01:34:27.537Z,100781.17
2023-03-16T01:37:11.643Z,100785.30
2023-03-16T01:40:14.188Z,100789.05
2023-03-16T01:43:06.966Z,100786.52
2023-03-16T01:46:07.382Z,100787.21
2023-03-16T01:49:09.799Z,100786.20
2023-03-16T01:51:51.470Z,100785.54
2023-03-16T01:54:27.649Z,100786.42
2023-03-16T01:57:04.356Z,100786.10
2023-03-16T01:59:46.242Z,100790.59
2023-03-16T02:02:27.719Z,100791.09
2023-03-16T02:05:35.243Z,100794.66
2023-03-16T02:08:09.980Z,100796.66
2023-03-16T02:10:46.225Z,100796.13
2023-03-16T02:13:23.298Z,100799.69
2023-03-16T02:16:06.149Z,100799.66
2023-03-16T02:18:42.882Z,100797.55
2023-03-16T02:21:16.480Z,100802.66
2023-03-16T02:23:50.374Z,100804.55
2023-03-16T02:26:53.435Z,100807.10
2023-03-16T02:30:08.536Z,100807.77
2023-03-16T02:32:53.527Z,100810.13
2023-03-16T02:35:26.082Z,100815.27
2023-03-16T02:38:10.500Z,100817.89
2023-03-16T02:40:59.950Z,100815.05
2023-03-16T02:43:50.384Z,100816.80
2023-03-16T02:46:37.908Z,100822.47
2023-03-16T02:49:25.682Z,100822.04
2023-03-16T02:52:09.494Z,100825.35
2023-03-16T02:54:43.536Z,100824.19
2023-03-16T02:57:27.272Z,100828.55
2023-03-16T03:00:21.706Z,100833.39
2023-03-16T03:02:54.835Z,100835.48
2023-03-16T03:05:32.702Z,100833.29
2023-03-16T03:08:09.755Z,100833.48
2023-03-16T03:10:39.573Z,100835.92
2023-03-16T03:13:15.499Z,100836.30
2023-03-16T03:15:54.122Z,100837.38
2023-03-16T03:18:31.150Z,100841.67
2023-03-16T03:21:04.001Z,100839.80
2023-03-16T03:23:37.999Z,100843.91
2023-03-16T03:26:21.350Z,100845.46
2023-03-16T03:29:13.854Z,100849.25
2023-03-16T03:31:51.580Z,100855.21
2023-03-16T03:34:31.191Z,100857.59
2023-03-16T03:37:09.266Z,100861.16
2023-03-16T03:39:44.752Z,100860.95
2023-03-16T03:42:28.128Z,100861.92
2023-03-16T03:45:12.487Z,100862.20
2023-03-16T03:47:48.406Z,100858.74
2023-03-16T03:50:24.935Z,100858.39
2023-03-16T03:53:13.346Z,100860.91
2023-03-16T03:56:10.705Z,100863.41
2023-03-16T03:58:54.945Z,100867.14
2023-03-16T04:01:40.192Z,100869.14
2023-03-16T04:04:16.442Z,100870.47
2023-03-16T04:06:51.291Z,100869.23
2023-03-16T04:09:23.454Z,100872.12
2023-03-16T04:12:01.635Z,100873.48
2023-03-16T04:14:35.695Z,100875.55
2023-03-16T04:17:14.006Z,100876.45
2023-03-16T04:19:48.866Z,100874.52
2023-03-16T04:22:23.519Z,100873.15
2023-03-16T04:24:58.081Z,100877.09
2023-03-16T04:27:36.266Z,100875.38
2023-03-16T04:30:14.046Z,100873.84
2023-03-16T04:32:52.070Z,100873.16
2023-03-16T04:35:27.216Z,100872.98
2023-03-16T04:38:02.749Z,100873.49
2023-03-16T04:40:44.886Z,100875.39
2023-03-16T04:43:20.657Z,100877.46
2023-03-16T04:45:52.455Z,100876.77
2023-03-16T04:48:26.700Z,100879.86
2023-03-16T04:51:03.327Z,100880.92
2023-03-16T04:53:48.154Z,100885.22
2023-03-16T04:56:25.395Z,100891.21
2023-03-16T04:59:05.789Z,100895.00
2023-03-16T05:01:45.970Z,100901.35
2023-03-16T05:04:19.962Z,100903.27
2023-03-16T05:07:00.074Z,100903.61
2023-03-16T05:09:35.947Z,100901.23
2023-03-16T05:12:08.850Z,100899.21
2023-03-16T05:14:41.138Z,100899.58
2023-03-16T05:17:20.019Z,100902.84
2023-03-16T05:19:52.149Z,100906.46
2023-03-16T05:22:33.392Z,100909.79
2023-03-16T05:25:22.062Z,100911.73
2023-03-16T05:27:56.686Z,100914.18
2023-03-16T05:30:40.302Z,100916.80
2023-03-16T05:33:12.964Z,100923.70
2023-03-16T05:35:43.915Z,100931.98
2023-03-16T05:38:18.097Z,100932.55
2023-03-16T05:41:06.383Z,100930.25
2023-03-16T05:44:10.409Z,100936.30
2023-03-16T05:49:57.114Z,100935.61
2023-03-16T05:52:44.906Z,100939.60
2023-03-16T05:55:31.079Z,100942.40
2023-03-16T05:58:17.770Z,100942.32
2023-03-16T06:00:47.145Z,100943.95
2023-03-16T06:03:30.739Z,100949.36
2023-03-16T06:06:08.408Z,100952.02
2023-03-16T06:08:50.534Z,100955.20
2023-03-16T06:11:36.761Z,100953.19
2023-03-16T06:14:08.783Z,100953.23
2023-03-16T06:16:51.126Z,100952.59
2023-03-16T06:19:31.667Z,100949.06
2023-03-16T06:22:17.161Z,100947.77
2023-03-16T06:24:49.213Z,100953.01
2023-03-16T06:27:21.880Z,100951.72
2023-03-16T06:30:16.526Z,100952.95
2023-03-16T06:32:48.722Z,100957.59
2023-03-16T06:35:18.085Z,100968.00
2023-03-16T06:38:01.822Z,100972.09
2023-03-16T06:41:01.891Z,100977.50
2023-03-16T06:43:51.601Z,100982.19
2023-03-16T06:46:24.709Z,100984.14
2023-03-16T06:49:02.766Z,100987.96
2023-03-16T06:51:39.635Z,100991.54
2023-03-16T06:54:36.148Z,100991.23
2023-03-16T06:57:12.219Z,100994.83
2023-03-16T06:59:47.059Z,100992.23
2023-03-16T07:02:27.368Z,100991.65
2023-03-16T07:05:05.488Z,100991.73
2023-03-16T07:07:43.131Z,100993.66
2023-03-16T07:10:20.167Z,100992.55
2023-03-16T07:12:50.275Z,100992.60
2023-03-16T07:15:27.660Z,100992.39
2023-03-16T07:18:09.641Z,100995.63
2023-03-16T07:20:44.165Z,100996.46
2023-03-16T07:23:15.270Z,100996.89
2023-03-16T07:25:48.407Z,100997.64
2023-03-16T07:28:25.903Z,100995.70
2023-03-16T07:31:17.376Z,100996.52
2023-03-16T07:33:59.988Z,100998.64
2023-03-16T07:36:38.288Z,100997.02
2023-03-16T07:39:17.281Z,100998.55
2023-03-16T07:42:04.244Z,101001.66
2023-03-16T07:45:15.415Z,101003.83
2023-03-16T07:48:14.162Z,101004.48
2023-03-16T07:50:56.103Z,101004.20
2023-03-16T07:53:38.516Z,101002.14
2023-03-16T07:56:27.216Z,101007.58
2023-03-16T07:59:05.728Z,101011.63
2023-03-16T08:01:44.269Z,101015.35
2023-03-16T08:04:42.419Z,101014.64
2023-03-16T08:07:29.187Z,101018.45
2023-03-16T08:10:19.222Z,101017.61
2023-03-16T08:13:10.821Z,101021.59
2023-03-16T08:16:11.805Z,101022.91
2023-03-16T08:18:44.786Z,101022.42
2023-03-16T08:21:17.836Z,101023.94
2023-03-16T08:23:54.089Z,101022.68
2023-03-16T08:26:31.311Z,101022.77
2023-03-16T08:29:03.301Z,101026.95
2023-03-16T08:31:42.235Z,101023.28
2023-03-16T08:34:24.154Z,101025.99
2023-03-16T08:36:56.390Z,101024.65
2023-03-16T08:39:27.565Z,101024.83
2023-03-16T08:42:01.431Z,101028.97
2023-03-16T08:44:39.625Z,101029.27
2023-03-16T08:47:13.725Z,101027.11
2023-03-16T08:49:46.924Z,101027.23
2023-03-16T08:52:54.814Z,101032.36
2023-03-16T08:55:50.461Z,101035.49
2023-03-16T08:58:33.043Z,101038.81
2023-03-16T09:01:05.188Z,101040.06
2023-03-16T09:03:56.648Z,101044.02
2023-03-16T09:06:41.398Z,101041.69
2023-03-16T09:09:27.800Z,101038.85
2023-03-16T09:11:59.411Z,101041.78
2023-03-16T09:14:31.811Z,101046.81
2023-03-16T09:17:02.518Z,101049.77
2023-03-16T09:19:50.098Z,101048.77
2023-03-16T09:22:26.936Z,101050.98
2023-03-16T09:24:58.399Z,101051.64
2023-03-16T09:27:36.737Z,101049.92
2023-03-16T09:30:11.706Z,101047.11
2023-03-16T09:32:58.483Z,101045.12
2023-03-16T09:35:49.809Z,101044.70
2023-03-16T09:38:44.362Z,101048.98
2023-03-16T09:42:26.105Z,101050.46
2023-03-16T09:46:16.089Z,101056.39
2023-03-16T09:48:48.315Z,101055.33
2023-03-16T09:52:10.460Z,101047.45
2023-03-16T09:55:56.492Z,101046.09
2023-03-16T09:58:59.321Z,101048.27
2023-03-16T10:02:07.804Z,101047.86
2023-03-16T10:05:21.377Z,101053.75
2023-03-16T10:08:28.178Z,101046.19
2023-03-16T10:11:36.248Z,101043.52
2023-03-16T10:14:55.331Z,101047.42
2023-03-16T10:18:13.331Z,101053.52
2023-03-16T10:20:57.590Z,101053.98
2023-03-16T10:23:44.997Z,101050.79
2023-03-16T10:29:37.484Z,101056.25
2023-03-16T10:32:34.060Z,101059.36
2023-03-16T10:35:57.007Z,101058.02
2023-03-16T10:39:22.590Z,101060.04
2023-03-16T10:42:21.993Z,101061.88
2023-03-16T10:45:04.052Z,101060.56
2023-03-16T10:47:43.127Z,101058.83
2023-03-16T10:50:35.941Z,101060.77
2023-03-16T10:53:39.136Z,101066.47
2023-03-16T10:59:41.158Z,101064.45
2023-03-16T11:02:41.708Z,101061.64
2023-03-16T11:05:32.491Z,101062.55
2023-03-16T11:08:15.907Z,101061.45
2023-03-16T11:10:59.791Z,101063.46
2023-03-16T11:13:53.376Z,101060.05
2023-03-16T11:17:03.308Z,101063.10
2023-03-16T11:20:14.785Z,101061.34
2023-03-16T11:22:55.224Z,101066.23
2023-03-16T11:25:48.516Z,101067.73
2023-03-16T11:28:30.871Z,101067.36
2023-03-16T11:31:42.508Z,101069.15
2023-03-16T11:34:23.142Z,101070.13
2023-03-16T11:37:18.340Z,101064.30
2023-03-16T11:40:32.858Z,101067.81
2023-03-16T11:43:21.748Z,101067.19
2023-03-16T11:46:17.880Z,101062.00
2023-03-16T11:49:38.836Z,101058.70
2023-03-16T11:52:49.478Z,101062.11
2023-03-16T11:55:41.656Z,101060.42
2023-03-16T11:58:42.059Z,101057.60
2023-03-16T12:01:58.177Z,101052.63
2023-03-16T12:04:50.514Z,101055.54
2023-03-16T12:07:39.554Z,101056.52
2023-03-16T12:10:32.470Z,101054.47
2023-03-16T12:13:17.318Z,101055.59
2023-03-16T12:16:13.955Z,101056.48
2023-03-16T12:19:34.314Z,101056.66
2023-03-16T12:22:44.152Z,101055.79
2023-03-16T12:25:51.279Z,101052.58
2023-03-16T12:28:31.908Z,101055.13
2023-03-16T12:31:22.501Z,101047.90
2023-03-16T12:34:16.245Z,101050.88
2023-03-16T12:37:20.850Z,101052.05
2023-03-16T12:40:31.214Z,101052.12
2023-03-16T12:43:39.393Z,101051.73
2023-03-16T12:46:58.598Z,101052.65
2023-03-16T12:49:39.122Z,101048.79
2023-03-16T12:52:14.861Z,101050.98
2023-03-16T12:55:25.814Z,101053.70
2023-03-16T12:58:14.499Z,101048.34
2023-03-16T13:01:04.958Z,101052.61
2023-03-16T13:03:39.198Z,101047.31
2023-03-16T13:06:29.796Z,101039.79
2023-03-16T13:09:14.184Z,101046.27
2023-03-16T13:12:48.869Z,101052.91
2023-03-16T13:16:02.569Z,101053.11
2023-03-16T13:19:51.804Z,101049.02
2023-03-16T13:23:14.386Z,101051.60
2023-03-16T13:26:17.858Z,101051.65
2023-03-16T13:29:44.340Z,101056.64
2023-03-16T13:37:14.630Z,101054.66
2023-03-16T13:41:17.551Z,101051.04
2023-03-16T13:43:50.645Z,101054.21
2023-03-16T13:54:01.810Z,101054.59
2023-03-16T13:57:14.436Z,101054.48
2023-03-16T14:00:52.229Z,101054.09
2023-03-16T14:29:10.270Z,101050.77
2023-03-16T15:08:49.063Z,101053.90
2023-03-16T15:11:57.351Z,101055.69
2023-03-16T15:14:54.981Z,101057.10
2023-03-16T15:17:54.187Z,101053.88
2023-03-16T15:20:46.098Z,101059.21
2023-03-16T15:23:33.187Z,101054.89
2023-03-16T15:26:11.354Z,101054.54
2023-03-16T15:28:45.635Z,101054.67
2023-03-16T15:31:21.122Z,101053.98
2023-03-16T15:33:57.238Z,101054.48
2023-03-16T15:36:28.985Z,101051.01
2023-03-16T15:39:03.531Z,101055.35
2023-03-16T15:41:46.756Z,101057.96
2023-03-16T15:44:26.004Z,101059.00
2023-03-16T15:46:57.313Z,101060.71
2023-03-16T15:49:47.269Z,101060.74
2023-03-16T15:52:39.890Z,101066.16
2023-03-16T15:55:36.394Z,101063.79
2023-03-16T15:58:26.996Z,101064.70
2023-03-16T16:01:03.254Z,101068.02
2023-03-16T16:03:34.581Z,101067.51
2023-03-16T16:06:13.976Z,101064.23
2023-03-16T16:08:48.916Z,101070.83
2023-03-16T16:11:26.137Z,101071.55
2023-03-16T16:14:07.057Z,101073.67
2023-03-16T16:16:59.273Z,101074.26
2023-03-16T16:19:38.348Z,101077.06
2023-03-16T16:22:13.836Z,101077.10
2023-03-16T16:24:55.188Z,101079.73
2023-03-16T16:27:28.995Z,101084.63
2023-03-16T16:33:31.773Z,101090.62
2023-03-16T16:36:29.193Z,101091.38
2023-03-16T16:39:10.047Z,101091.95
2023-03-16T16:42:02.233Z,101096.47
2023-03-16T16:44:40.273Z,101093.71
2023-03-16T16:47:23.281Z,101095.81
2023-03-16T16:50:31.329Z,101098.27
2023-03-16T16:53:24.886Z,101102.66
2023-03-16T16:56:00.124Z,101099.58
2023-03-16T16:58:47.532Z,101102.36
2023-03-16T17:01:53.153Z,101108.61
2023-03-16T17:08:46.343Z,101116.86
2023-03-16T17:12:34.136Z,101114.49
2023-03-16T17:16:19.570Z,101118.67
2023-03-16T17:23:59.615Z,101126.36
2023-03-16T17:27:13.659Z,101132.42
2023-03-16T17:30:16.499Z,101133.65
2023-03-16T17:33:05.863Z,101127.79
2023-03-16T17:36:21.041Z,101127.11
2023-03-16T17:39:36.865Z,101131.80
2023-03-16T17:42:51.251Z,101133.01
2023-03-16T17:45:37.123Z,101133.54
2023-03-16T17:49:11.546Z,101132.51
2023-03-16T17:52:38.746Z,101132.70
2023-03-16T17:55:20.960Z,101137.88
2023-03-16T17:58:35.198Z,101143.04
2023-03-16T18:01:39.309Z,101148.73
2023-03-16T18:05:07.184Z,101154.92
2023-03-16T18:07:48.988Z,101157.48
2023-03-16T18:11:09.510Z,101156.81
2023-03-16T18:18:19.426Z,101163.14
2023-03-16T18:25:40.732Z,101164.65
2023-03-16T18:28:27.738Z,101164.48
2023-03-16T18:31:12.393Z,101166.70
2023-03-16T18:34:01.288Z,101164.46
2023-03-16T18:36:48.561Z,101164.09
2023-03-16T18:39:27.479Z,101165.95
2023-03-16T18:42:04.726Z,101166.63
2023-03-16T18:44:53.795Z,101167.80
2023-03-16T18:48:05.639Z,101170.02
2023-03-16T18:50:54.801Z,101173.94
2023-03-16T18:54:02.861Z,101175.77
2023-03-16T19:00:35.570Z,101168.26
2023-03-16T19:03:46.924Z,101167.89
2023-03-16T19:06:44.010Z,101173.00
2023-03-16T19:09:55.452Z,101175.39
2023-03-16T19:16:26.485Z,101173.52
2023-03-16T19:19:20.038Z,101174.18
2023-03-16T19:22:44.988Z,101175.52
2023-03-16T19:25:34.649Z,101175.13
2023-03-16T19:28:33.648Z,101175.78
2023-03-16T19:31:49.906Z,101179.54
2023-03-16T19:34:30.510Z,101180.50
2023-03-16T19:37:44.794Z,101180.31
2023-03-16T19:41:26.825Z,101180.63
2023-03-16T19:45:01.793Z,101181.29
2023-03-16T19:48:25.302Z,101187.30
2023-03-16T19:51:36.846Z,101193.98
2023-03-16T19:54:44.683Z,101195.67
2023-03-16T19:57:23.317Z,101199.27
2023-03-16T19:59:59.751Z,101198.62
2023-03-16T20:02:44.528Z,101203.11
2023-03-16T20:05:20.953Z,101209.30
2023-03-16T20:08:03.421Z,101205.98
2023-03-16T20:10:36.234Z,101203.19
2023-03-16T20:13:07.133Z,101206.44
2023-03-16T20:15:36.988Z,101209.52
2023-03-16T20:18:16.216Z,101211.92
2023-03-16T20:20:45.660Z,101213.25
2023-03-16T20:23:30.311Z,101214.27
2023-03-16T20:26:03.044Z,101215.44
2023-03-16T20:28:43.868Z,101215.93
2023-03-16T20:31:29.596Z,101219.20
2023-03-16T20:33:58.880Z,101220.05
2023-03-16T20:36:27.953Z,101221.27
2023-03-16T20:39:03.915Z,101222.81
2023-03-16T20:41:39.570Z,101223.29
2023-03-16T20:44:26.294Z,101221.16
2023-03-16T20:47:01.276Z,101217.15
2023-03-16T20:49:37.999Z,101215.10
2023-03-16T20:52:30.443Z,101206.98
2023-03-16T20:55:06.201Z,101202.63
2023-03-16T20:57:46.614Z,101201.05
2023-03-16T21:00:30.728Z,101203.77
2023-03-16T21:03:05.410Z,101203.89
2023-03-16T21:05:41.449Z,101199.07
2023-03-16T21:08:09.629Z,101199.59
2023-03-16T21:10:43.231Z,101196.11
2023-03-16T21:13:41.676Z,101190.59
2023-03-16T21:16:26.660Z,101187.82
2023-03-16T21:19:11.269Z,101187.63
2023-03-16T21:22:07.122Z,101189.98
2023-03-16T21:24:49.081Z,101188.14
2023-03-16T21:27:30.626Z,101190.80
2023-03-16T21:30:28.935Z,101188.64
2023-03-16T21:33:10.188Z,101183.44
2023-03-16T21:35:46.148Z,101183.42
2023-03-16T21:38:22.571Z,101188.09
2023-03-16T21:40:59.256Z,101181.38
2023-03-16T21:43:31.352Z,101179.59
2023-03-16T21:46:00.363Z,101178.85
2023-03-16T21:48:44.216Z,101173.98
2023-03-16T21:51:33.893Z,101173.69
2023-03-16T21:54:09.085Z,101174.98
2023-03-16T21:56:43.728Z,101174.79
2023-03-16T21:59:15.882Z,101176.00
2023-03-16T22:02:01.254Z,101177.23
2023-03-16T22:04:34.804Z,101174.76
2023-03-16T22:07:11.722Z,101173.27
2023-03-16T22:09:51.369Z,101173.63
2023-03-16T22:12:22.948Z,101177.90
2023-03-16T22:15:06.329Z,101181.17
2023-03-16T22:17:58.264Z,101180.63
2023-03-16T22:20:32.806Z,101178.70
2023-03-16T22:23:08.749Z,101185.50
2023-03-16T22:25:49.570Z,101187.84
2023-03-16T22:28:34.325Z,101183.63
2023-03-16T22:31:16.118Z,101180.96
2023-03-16T22:33:55.341Z,101180.75
2023-03-16T22:36:39.229Z,101179.45
2023-03-16T22:43:20.178Z,101180.20
2023-03-16T22:46:15.091Z,101182.15
2023-03-16T22:49:02.298Z,101186.20
2023-03-16T22:51:40.873Z,101188.40
2023-03-16T22:54:32.801Z,101190.45
2023-03-16T22:57:27.675Z,101196.45
2023-03-16T23:00:36.077Z,101199.36
2023-03-16T23:03:36.394Z,101202.68
2023-03-16T23:06:26.185Z,101204.13
2023-03-16T23:09:20.507Z,101209.33
2023-03-16T23:12:03.637Z,101212.60
2023-03-16T23:14:38.253Z,101217.39
2023-03-16T23:17:24.893Z,101223.84
2023-03-16T23:20:00.487Z,101223.27
2023-03-16T23:22:33.981Z,101223.96
2023-03-16T23:25:05.756Z,101226.52
2023-03-16T23:27:42.637Z,101225.69
2023-03-16T23:30:32.948Z,101224.06
2023-03-16T23:33:12.396Z,101221.50
2023-03-16T23:35:51.045Z,101222.89
2023-03-16T23:38:22.891Z,101222.36
2023-03-16T23:40:56.574Z,101218.80
2023-03-16T23:43:30.713Z,101212.66
2023-03-16T23:46:06.745Z,101212.66
2023-03-16T23:48:53.768Z,101213.08
2023-03-16T23:51:35.698Z,101214.03
2023-03-16T23:54:29.536Z,101212.65
2023-03-16T23:57:04.289Z,101206.81
2023-03-16T23:59:32.689Z,101212.45
